Terminal Aerodrome Forecast
Issued by NWS Lake Charles, LA

Current Version | Previous Version | Text Only | Print | Product List | Glossary On
Versions: 1 2 3 4 5 6 7 8 9 10 11 12
000
FTUS44 KLCH 031120
TAFAEX
TAF
KAEX 031120Z 0312/0412 00000KT P6SM SKC
      TEMPO 0312/0313 3SM BR
     FM031500 18006KT P6SM SCT050
     FM040000 VRB03KT P6SM SKC=

USA.gov is the U.S. government's official web portal to all federal, state and local government web resources and services.